Buena Vista Township, New Jersey
Current Conditions -  °F | °C
As of 2:54 AM on Tuesday 27 Jan 2015 (Local Time) from KMIV Reporting Station
Overcast Overcast  
Wind Chill: 16°   Ceiling: 3400
Heat Index: 28°   Visibility: 10mi
Dew Point: 20°   Wind: 16mph
Humidity: 72%   Direction: 350°N
Pressure: 29.65"   Gusts: 25mph
Location:  39.531°N, 74.8918°W
Report Text: KMIV 270754Z AUTO 35014G22KT 10SM OVC034 M02/M07 A2965 RMK AO2 PK WND 35028/0715 SLP041 T10221067
Loading
Personal Weather Stations






























Interactive Weather Map New forecast layout! Learn more

10-Day Weather Forecast

Advertisements
Track Severe Weather on mobile